sensor_id;sensor_type;location;lat;lon;timestamp;P1;durP1;ratioP1;P2;durP2;ratioP2
33802;SDS011;20110;53.120;5.786;2022-10-31T00:01:17;53.85;;;16.13;;
33802;SDS011;20110;53.120;5.786;2022-10-31T00:03:47;34.38;;;15.85;;
33802;SDS011;20110;53.120;5.786;2022-10-31T00:06:13;38.15;;;15.88;;
33802;SDS011;20110;53.120;5.786;2022-10-31T00:08:39;33.13;;;14.82;;
33802;SDS011;20110;53.120;5.786;2022-10-31T00:11:09;41.90;;;15.30;;
33802;SDS011;20110;53.120;5.786;2022-10-31T00:13:35;49.15;;;16.33;;
33802;SDS011;20110;53.120;5.786;2022-10-31T00:16:01;42.88;;;16.08;;
33802;SDS011;20110;53.120;5.786;2022-10-31T00:18:26;40.30;;;17.85;;
33802;SDS011;20110;53.120;5.786;2022-10-31T00:20:59;39.75;;;17.42;;
33802;SDS011;20110;53.120;5.786;2022-10-31T00:23:27;47.03;;;17.85;;
33802;SDS011;20110;53.120;5.786;2022-10-31T00:25:53;38.25;;;17.02;;
33802;SDS011;20110;53.120;5.786;2022-10-31T00:28:19;47.83;;;19.20;;
33802;SDS011;20110;53.120;5.786;2022-10-31T00:30:45;51.97;;;19.63;;
33802;SDS011;20110;53.120;5.786;2022-10-31T00:33:11;57.80;;;18.38;;
33802;SDS011;20110;53.120;5.786;2022-10-31T00:35:36;63.30;;;21.27;;
33802;SDS011;20110;53.120;5.786;2022-10-31T00:38:02;56.65;;;21.20;;
33802;SDS011;20110;53.120;5.786;2022-10-31T00:40:28;59.60;;;21.60;;
33802;SDS011;20110;53.120;5.786;2022-10-31T00:42:54;61.00;;;22.85;;
33802;SDS011;20110;53.120;5.786;2022-10-31T00:45:19;66.38;;;23.25;;
33802;SDS011;20110;53.120;5.786;2022-10-31T00:47:45;50.15;;;20.55;;
33802;SDS011;20110;53.120;5.786;2022-10-31T00:50:11;53.63;;;21.52;;
33802;SDS011;20110;53.120;5.786;2022-10-31T00:52:37;45.30;;;19.38;;
33802;SDS011;20110;53.120;5.786;2022-10-31T00:55:02;56.22;;;21.23;;
33802;SDS011;20110;53.120;5.786;2022-10-31T00:57:28;63.50;;;21.58;;
33802;SDS011;20110;53.120;5.786;2022-10-31T00:59:54;48.45;;;18.90;;
33802;SDS011;20110;53.120;5.786;2022-10-31T01:02:20;44.85;;;20.02;;
33802;SDS011;20110;53.120;5.786;2022-10-31T01:04:46;49.17;;;19.70;;
33802;SDS011;20110;53.120;5.786;2022-10-31T01:07:12;49.05;;;19.40;;
33802;SDS011;20110;53.120;5.786;2022-10-31T01:09:39;45.15;;;20.02;;
33802;SDS011;20110;53.120;5.786;2022-10-31T01:12:05;45.60;;;18.95;;
33802;SDS011;20110;53.120;5.786;2022-10-31T01:14:31;45.45;;;18.63;;
33802;SDS011;20110;53.120;5.786;2022-10-31T01:16:57;39.03;;;18.00;;
33802;SDS011;20110;53.120;5.786;2022-10-31T01:19:22;41.22;;;19.02;;
33802;SDS011;20110;53.120;5.786;2022-10-31T01:21:48;36.72;;;18.77;;
33802;SDS011;20110;53.120;5.786;2022-10-31T01:24:14;39.85;;;18.33;;
33802;SDS011;20110;53.120;5.786;2022-10-31T01:26:40;33.38;;;16.80;;
33802;SDS011;20110;53.120;5.786;2022-10-31T01:29:06;40.80;;;16.50;;
33802;SDS011;20110;53.120;5.786;2022-10-31T01:31:37;37.90;;;17.90;;
33802;SDS011;20110;53.120;5.786;2022-10-31T01:34:04;44.42;;;18.45;;
33802;SDS011;20110;53.120;5.786;2022-10-31T01:36:32;43.40;;;18.10;;
33802;SDS011;20110;53.120;5.786;2022-10-31T01:39:05;39.60;;;18.23;;
33802;SDS011;20110;53.120;5.786;2022-10-31T01:41:39;40.25;;;18.15;;
33802;SDS011;20110;53.120;5.786;2022-10-31T01:46:41;43.78;;;17.85;;
33802;SDS011;20110;53.120;5.786;2022-10-31T01:49:20;39.28;;;18.40;;
33802;SDS011;20110;53.120;5.786;2022-10-31T01:51:55;45.83;;;19.13;;
33802;SDS011;20110;53.120;5.786;2022-10-31T01:54:27;43.83;;;18.92;;
33802;SDS011;20110;53.120;5.786;2022-10-31T01:57:00;44.80;;;19.13;;
33802;SDS011;20110;53.120;5.786;2022-10-31T01:59:30;35.60;;;19.42;;
33802;SDS011;20110;53.120;5.786;2022-10-31T02:02:00;42.65;;;17.80;;
33802;SDS011;20110;53.120;5.786;2022-10-31T02:04:26;46.72;;;19.27;;
33802;SDS011;20110;53.120;5.786;2022-10-31T02:07:04;51.85;;;20.13;;
33802;SDS011;20110;53.120;5.786;2022-10-31T02:09:39;45.40;;;19.55;;
33802;SDS011;20110;53.120;5.786;2022-10-31T02:12:08;44.72;;;19.50;;
33802;SDS011;20110;53.120;5.786;2022-10-31T02:14:36;48.35;;;19.85;;
33802;SDS011;20110;53.120;5.786;2022-10-31T02:17:04;46.50;;;20.13;;
33802;SDS011;20110;53.120;5.786;2022-10-31T02:22:08;45.10;;;20.52;;
33802;SDS011;20110;53.120;5.786;2022-10-31T02:27:39;50.10;;;20.35;;
33802;SDS011;20110;53.120;5.786;2022-10-31T02:42:16;42.78;;;18.95;;
33802;SDS011;20110;53.120;5.786;2022-10-31T02:45:57;47.08;;;17.88;;
33802;SDS011;20110;53.120;5.786;2022-10-31T02:48:21;38.67;;;17.70;;
33802;SDS011;20110;53.120;5.786;2022-10-31T02:50:57;39.78;;;18.25;;
33802;SDS011;20110;53.120;5.786;2022-10-31T02:53:31;36.25;;;19.98;;
33802;SDS011;20110;53.120;5.786;2022-10-31T02:56:04;42.97;;;19.80;;
33802;SDS011;20110;53.120;5.786;2022-10-31T02:58:53;43.20;;;19.45;;
33802;SDS011;20110;53.120;5.786;2022-10-31T03:07:11;48.88;;;20.38;;
33802;SDS011;20110;53.120;5.786;2022-10-31T03:12:57;35.88;;;18.80;;
33802;SDS011;20110;53.120;5.786;2022-10-31T03:15:52;49.20;;;20.50;;
33802;SDS011;20110;53.120;5.786;2022-10-31T03:18:32;47.00;;;19.85;;
33802;SDS011;20110;53.120;5.786;2022-10-31T03:21:14;59.25;;;19.52;;
33802;SDS011;20110;53.120;5.786;2022-10-31T03:26:18;46.20;;;18.83;;
33802;SDS011;20110;53.120;5.786;2022-10-31T03:31:49;40.08;;;18.60;;
33802;SDS011;20110;53.120;5.786;2022-10-31T03:34:22;46.20;;;20.33;;
33802;SDS011;20110;53.120;5.786;2022-10-31T03:36:49;41.75;;;20.77;;
33802;SDS011;20110;53.120;5.786;2022-10-31T03:39:20;50.38;;;20.75;;
33802;SDS011;20110;53.120;5.786;2022-10-31T03:41:55;50.08;;;21.40;;
33802;SDS011;20110;53.120;5.786;2022-10-31T03:44:33;44.03;;;21.67;;
33802;SDS011;20110;53.120;5.786;2022-10-31T03:47:01;49.60;;;22.73;;
33802;SDS011;20110;53.120;5.786;2022-10-31T03:49:29;56.38;;;22.05;;
33802;SDS011;20110;53.120;5.786;2022-10-31T03:52:08;57.80;;;22.83;;
33802;SDS011;20110;53.120;5.786;2022-10-31T03:54:54;52.03;;;22.23;;
33802;SDS011;20110;53.120;5.786;2022-10-31T04:00:06;49.83;;;21.77;;
33802;SDS011;20110;53.120;5.786;2022-10-31T04:02:37;54.03;;;20.35;;
33802;SDS011;20110;53.120;5.786;2022-10-31T04:05:09;53.38;;;22.23;;
33802;SDS011;20110;53.120;5.786;2022-10-31T04:07:41;55.17;;;21.77;;
33802;SDS011;20110;53.120;5.786;2022-10-31T04:10:13;54.95;;;22.20;;
33802;SDS011;20110;53.120;5.786;2022-10-31T04:12:42;60.67;;;23.73;;
33802;SDS011;20110;53.120;5.786;2022-10-31T04:15:15;63.47;;;22.92;;
33802;SDS011;20110;53.120;5.786;2022-10-31T04:17:41;57.22;;;22.48;;
33802;SDS011;20110;53.120;5.786;2022-10-31T04:20:13;59.70;;;23.40;;
33802;SDS011;20110;53.120;5.786;2022-10-31T04:22:42;52.50;;;21.90;;
33802;SDS011;20110;53.120;5.786;2022-10-31T04:25:08;56.03;;;22.08;;
33802;SDS011;20110;53.120;5.786;2022-10-31T04:27:34;54.40;;;23.00;;
33802;SDS011;20110;53.120;5.786;2022-10-31T04:29:59;50.35;;;21.58;;
33802;SDS011;20110;53.120;5.786;2022-10-31T04:32:25;61.33;;;22.77;;
33802;SDS011;20110;53.120;5.786;2022-10-31T04:34:51;62.58;;;23.92;;
33802;SDS011;20110;53.120;5.786;2022-10-31T04:37:17;67.40;;;24.48;;
33802;SDS011;20110;53.120;5.786;2022-10-31T04:39:43;55.47;;;21.25;;
33802;SDS011;20110;53.120;5.786;2022-10-31T04:42:08;59.85;;;22.10;;
33802;SDS011;20110;53.120;5.786;2022-10-31T04:44:34;58.53;;;20.40;;
33802;SDS011;20110;53.120;5.786;2022-10-31T04:47:00;56.60;;;21.67;;
33802;SDS011;20110;53.120;5.786;2022-10-31T04:49:25;56.88;;;23.33;;
33802;SDS011;20110;53.120;5.786;2022-10-31T04:51:51;62.22;;;22.70;;
33802;SDS011;20110;53.120;5.786;2022-10-31T04:54:17;69.15;;;23.90;;
33802;SDS011;20110;53.120;5.786;2022-10-31T04:56:43;68.13;;;24.70;;
33802;SDS011;20110;53.120;5.786;2022-10-31T04:59:08;67.60;;;25.83;;
33802;SDS011;20110;53.120;5.786;2022-10-31T05:01:34;74.57;;;24.33;;
33802;SDS011;20110;53.120;5.786;2022-10-31T05:04:00;68.65;;;26.30;;
33802;SDS011;20110;53.120;5.786;2022-10-31T05:06:26;69.28;;;26.83;;
33802;SDS011;20110;53.120;5.786;2022-10-31T05:08:51;67.10;;;24.70;;
33802;SDS011;20110;53.120;5.786;2022-10-31T05:11:17;64.97;;;27.13;;
33802;SDS011;20110;53.120;5.786;2022-10-31T05:13:43;69.22;;;28.83;;
33802;SDS011;20110;53.120;5.786;2022-10-31T05:16:09;72.00;;;27.77;;
33802;SDS011;20110;53.120;5.786;2022-10-31T05:18:34;67.25;;;27.92;;
33802;SDS011;20110;53.120;5.786;2022-10-31T05:21:00;57.17;;;26.65;;
33802;SDS011;20110;53.120;5.786;2022-10-31T05:23:26;73.70;;;28.65;;
33802;SDS011;20110;53.120;5.786;2022-10-31T05:25:52;72.07;;;28.60;;
33802;SDS011;20110;53.120;5.786;2022-10-31T05:28:18;62.20;;;28.58;;
33802;SDS011;20110;53.120;5.786;2022-10-31T05:30:43;68.60;;;28.45;;
33802;SDS011;20110;53.120;5.786;2022-10-31T05:33:09;60.17;;;28.45;;
33802;SDS011;20110;53.120;5.786;2022-10-31T05:35:35;57.97;;;29.15;;
33802;SDS011;20110;53.120;5.786;2022-10-31T05:38:01;64.30;;;28.52;;
33802;SDS011;20110;53.120;5.786;2022-10-31T05:40:27;69.97;;;30.58;;
33802;SDS011;20110;53.120;5.786;2022-10-31T05:42:53;75.03;;;32.10;;
33802;SDS011;20110;53.120;5.786;2022-10-31T05:45:21;61.75;;;29.83;;
33802;SDS011;20110;53.120;5.786;2022-10-31T05:47:57;69.32;;;30.15;;
33802;SDS011;20110;53.120;5.786;2022-10-31T05:50:26;75.63;;;31.52;;
33802;SDS011;20110;53.120;5.786;2022-10-31T05:52:58;80.75;;;30.73;;
33802;SDS011;20110;53.120;5.786;2022-10-31T05:55:30;66.32;;;30.10;;
33802;SDS011;20110;53.120;5.786;2022-10-31T05:57:57;84.90;;;31.00;;
33802;SDS011;20110;53.120;5.786;2022-10-31T06:00:23;70.18;;;30.83;;
33802;SDS011;20110;53.120;5.786;2022-10-31T06:02:57;80.30;;;30.15;;
33802;SDS011;20110;53.120;5.786;2022-10-31T06:05:29;68.15;;;28.00;;
33802;SDS011;20110;53.120;5.786;2022-10-31T06:07:56;70.03;;;29.77;;
33802;SDS011;20110;53.120;5.786;2022-10-31T06:10:22;64.68;;;26.90;;
33802;SDS011;20110;53.120;5.786;2022-10-31T06:12:48;69.55;;;30.23;;
33802;SDS011;20110;53.120;5.786;2022-10-31T06:15:14;74.15;;;30.65;;
33802;SDS011;20110;53.120;5.786;2022-10-31T06:17:41;72.80;;;31.05;;
33802;SDS011;20110;53.120;5.786;2022-10-31T06:20:08;65.50;;;31.90;;
33802;SDS011;20110;53.120;5.786;2022-10-31T06:22:34;71.88;;;33.47;;
33802;SDS011;20110;53.120;5.786;2022-10-31T06:25:00;76.72;;;32.40;;
33802;SDS011;20110;53.120;5.786;2022-10-31T06:27:26;85.85;;;33.50;;
33802;SDS011;20110;53.120;5.786;2022-10-31T06:29:52;71.57;;;32.42;;
33802;SDS011;20110;53.120;5.786;2022-10-31T06:32:18;77.75;;;33.78;;
33802;SDS011;20110;53.120;5.786;2022-10-31T06:34:44;71.70;;;30.95;;
33802;SDS011;20110;53.120;5.786;2022-10-31T06:37:13;72.40;;;31.70;;
33802;SDS011;20110;53.120;5.786;2022-10-31T06:39:39;66.93;;;31.85;;
33802;SDS011;20110;53.120;5.786;2022-10-31T06:42:05;71.97;;;32.70;;
33802;SDS011;20110;53.120;5.786;2022-10-31T06:44:31;83.38;;;33.65;;
33802;SDS011;20110;53.120;5.786;2022-10-31T06:46:57;71.10;;;30.40;;
33802;SDS011;20110;53.120;5.786;2022-10-31T06:49:23;84.70;;;33.35;;
33802;SDS011;20110;53.120;5.786;2022-10-31T06:51:49;81.40;;;32.95;;
33802;SDS011;20110;53.120;5.786;2022-10-31T06:54:16;83.32;;;34.80;;
33802;SDS011;20110;53.120;5.786;2022-10-31T06:56:42;82.53;;;33.55;;
33802;SDS011;20110;53.120;5.786;2022-10-31T06:59:10;100.93;;;34.50;;
33802;SDS011;20110;53.120;5.786;2022-10-31T07:01:36;97.30;;;34.83;;
33802;SDS011;20110;53.120;5.786;2022-10-31T07:04:01;90.97;;;34.10;;
33802;SDS011;20110;53.120;5.786;2022-10-31T07:06:28;79.00;;;31.88;;
33802;SDS011;20110;53.120;5.786;2022-10-31T07:08:54;85.32;;;34.47;;
33802;SDS011;20110;53.120;5.786;2022-10-31T07:11:20;82.72;;;33.97;;
33802;SDS011;20110;53.120;5.786;2022-10-31T07:13:46;102.28;;;34.42;;
33802;SDS011;20110;53.120;5.786;2022-10-31T07:16:11;100.88;;;35.90;;
33802;SDS011;20110;53.120;5.786;2022-10-31T07:18:38;87.38;;;35.88;;
33802;SDS011;20110;53.120;5.786;2022-10-31T07:21:05;91.53;;;36.05;;
33802;SDS011;20110;53.120;5.786;2022-10-31T07:23:31;86.10;;;34.47;;
33802;SDS011;20110;53.120;5.786;2022-10-31T07:25:57;90.32;;;36.08;;
33802;SDS011;20110;53.120;5.786;2022-10-31T07:28:25;110.95;;;38.30;;
33802;SDS011;20110;53.120;5.786;2022-10-31T07:30:52;93.40;;;36.80;;
33802;SDS011;20110;53.120;5.786;2022-10-31T07:33:23;91.07;;;36.60;;
33802;SDS011;20110;53.120;5.786;2022-10-31T07:35:51;97.43;;;35.28;;
33802;SDS011;20110;53.120;5.786;2022-10-31T07:38:17;102.25;;;35.60;;
33802;SDS011;20110;53.120;5.786;2022-10-31T07:40:43;88.20;;;35.30;;
33802;SDS011;20110;53.120;5.786;2022-10-31T07:43:13;83.72;;;34.97;;
33802;SDS011;20110;53.120;5.786;2022-10-31T07:45:39;92.38;;;35.78;;
33802;SDS011;20110;53.120;5.786;2022-10-31T07:48:05;104.18;;;36.60;;
33802;SDS011;20110;53.120;5.786;2022-10-31T07:50:31;81.28;;;36.20;;
33802;SDS011;20110;53.120;5.786;2022-10-31T07:53:03;81.32;;;35.28;;
33802;SDS011;20110;53.120;5.786;2022-10-31T07:55:32;77.05;;;33.53;;
33802;SDS011;20110;53.120;5.786;2022-10-31T07:57:59;84.32;;;36.60;;
33802;SDS011;20110;53.120;5.786;2022-10-31T08:00:28;78.72;;;33.95;;
33802;SDS011;20110;53.120;5.786;2022-10-31T08:02:59;79.47;;;34.63;;
33802;SDS011;20110;53.120;5.786;2022-10-31T08:05:31;89.13;;;35.60;;
33802;SDS011;20110;53.120;5.786;2022-10-31T08:07:58;88.40;;;35.78;;
33802;SDS011;20110;53.120;5.786;2022-10-31T08:10:25;83.75;;;35.65;;
33802;SDS011;20110;53.120;5.786;2022-10-31T08:12:59;82.10;;;36.00;;
33802;SDS011;20110;53.120;5.786;2022-10-31T08:15:31;73.60;;;35.08;;
33802;SDS011;20110;53.120;5.786;2022-10-31T08:17:59;78.18;;;34.88;;
33802;SDS011;20110;53.120;5.786;2022-10-31T08:20:25;73.32;;;34.20;;
33802;SDS011;20110;53.120;5.786;2022-10-31T08:22:58;87.18;;;35.35;;
33802;SDS011;20110;53.120;5.786;2022-10-31T08:25:26;73.57;;;33.15;;
33802;SDS011;20110;53.120;5.786;2022-10-31T08:27:55;76.78;;;33.50;;
33802;SDS011;20110;53.120;5.786;2022-10-31T08:30:22;62.75;;;32.40;;
33802;SDS011;20110;53.120;5.786;2022-10-31T08:33:11;68.05;;;30.48;;
33802;SDS011;20110;53.120;5.786;2022-10-31T08:35:40;60.53;;;28.08;;
33802;SDS011;20110;53.120;5.786;2022-10-31T08:38:07;60.33;;;30.35;;
33802;SDS011;20110;53.120;5.786;2022-10-31T08:40:38;60.05;;;27.88;;
33802;SDS011;20110;53.120;5.786;2022-10-31T08:43:05;63.67;;;29.23;;
33802;SDS011;20110;53.120;5.786;2022-10-31T08:45:36;53.67;;;26.92;;
33802;SDS011;20110;53.120;5.786;2022-10-31T08:48:04;51.58;;;27.45;;
33802;SDS011;20110;53.120;5.786;2022-10-31T08:50:34;48.95;;;25.15;;
33802;SDS011;20110;53.120;5.786;2022-10-31T08:53:06;55.75;;;27.45;;
33802;SDS011;20110;53.120;5.786;2022-10-31T08:55:37;45.63;;;24.92;;
33802;SDS011;20110;53.120;5.786;2022-10-31T08:58:05;46.22;;;24.90;;
33802;SDS011;20110;53.120;5.786;2022-10-31T09:00:38;40.03;;;23.70;;
33802;SDS011;20110;53.120;5.786;2022-10-31T09:03:06;42.13;;;25.23;;
33802;SDS011;20110;53.120;5.786;2022-10-31T09:05:40;45.10;;;25.00;;
33802;SDS011;20110;53.120;5.786;2022-10-31T09:08:07;30.50;;;20.63;;
33802;SDS011;20110;53.120;5.786;2022-10-31T09:10:35;31.20;;;20.42;;
33802;SDS011;20110;53.120;5.786;2022-10-31T09:13:03;33.13;;;20.65;;
33802;SDS011;20110;53.120;5.786;2022-10-31T09:15:38;34.45;;;19.05;;
33802;SDS011;20110;53.120;5.786;2022-10-31T09:18:06;25.65;;;17.15;;
33802;SDS011;20110;53.120;5.786;2022-10-31T09:20:34;24.20;;;17.80;;
33802;SDS011;20110;53.120;5.786;2022-10-31T09:23:04;23.80;;;17.08;;
33802;SDS011;20110;53.120;5.786;2022-10-31T09:25:33;21.52;;;16.27;;
33802;SDS011;20110;53.120;5.786;2022-10-31T09:28:01;33.08;;;18.27;;
33802;SDS011;20110;53.120;5.786;2022-10-31T09:30:29;25.20;;;16.08;;
33802;SDS011;20110;53.120;5.786;2022-10-31T09:33:04;26.83;;;16.58;;
33802;SDS011;20110;53.120;5.786;2022-10-31T09:35:34;24.73;;;16.70;;
33802;SDS011;20110;53.120;5.786;2022-10-31T09:38:02;25.27;;;15.32;;
33802;SDS011;20110;53.120;5.786;2022-10-31T09:40:45;20.70;;;14.18;;
33802;SDS011;20110;53.120;5.786;2022-10-31T09:48:34;24.73;;;15.18;;
33802;SDS011;20110;53.120;5.786;2022-10-31T09:54:09;25.17;;;15.00;;
33802;SDS011;20110;53.120;5.786;2022-10-31T09:56:57;30.73;;;15.38;;
33802;SDS011;20110;53.120;5.786;2022-10-31T09:59:29;33.20;;;16.35;;
33802;SDS011;20110;53.120;5.786;2022-10-31T10:02:04;30.23;;;16.95;;
33802;SDS011;20110;53.120;5.786;2022-10-31T10:04:54;27.27;;;15.95;;
33802;SDS011;20110;53.120;5.786;2022-10-31T10:13:14;25.45;;;17.08;;
33802;SDS011;20110;53.120;5.786;2022-10-31T10:18:49;27.50;;;16.77;;
33802;SDS011;20110;53.120;5.786;2022-10-31T10:21:29;28.17;;;16.00;;
33802;SDS011;20110;53.120;5.786;2022-10-31T10:29:58;24.58;;;15.65;;
33802;SDS011;20110;53.120;5.786;2022-10-31T10:32:46;27.30;;;14.90;;
33802;SDS011;20110;53.120;5.786;2022-10-31T10:35:29;27.98;;;14.95;;
33802;SDS011;20110;53.120;5.786;2022-10-31T10:38:10;20.33;;;14.02;;
33802;SDS011;20110;53.120;5.786;2022-10-31T10:40:59;20.98;;;13.93;;
33802;SDS011;20110;53.120;5.786;2022-10-31T10:43:34;23.33;;;14.65;;
33802;SDS011;20110;53.120;5.786;2022-10-31T10:46:44;21.38;;;13.20;;
33802;SDS011;20110;53.120;5.786;2022-10-31T10:52:27;16.50;;;11.20;;
33802;SDS011;20110;53.120;5.786;2022-10-31T10:58:08;17.77;;;10.30;;
33802;SDS011;20110;53.120;5.786;2022-10-31T11:00:37;14.55;;;9.35;;
33802;SDS011;20110;53.120;5.786;2022-10-31T11:03:07;14.23;;;10.00;;
33802;SDS011;20110;53.120;5.786;2022-10-31T11:05:36;12.18;;;8.90;;
33802;SDS011;20110;53.120;5.786;2022-10-31T11:08:25;12.70;;;9.43;;
33802;SDS011;20110;53.120;5.786;2022-10-31T11:11:01;13.68;;;8.93;;
33802;SDS011;20110;53.120;5.786;2022-10-31T11:13:33;12.02;;;9.63;;
33802;SDS011;20110;53.120;5.786;2022-10-31T11:18:32;15.93;;;9.60;;
33802;SDS011;20110;53.120;5.786;2022-10-31T11:21:03;15.02;;;10.40;;
33802;SDS011;20110;53.120;5.786;2022-10-31T11:23:31;15.35;;;8.70;;
33802;SDS011;20110;53.120;5.786;2022-10-31T11:26:02;15.60;;;9.20;;
33802;SDS011;20110;53.120;5.786;2022-10-31T11:28:41;13.85;;;10.43;;
33802;SDS011;20110;53.120;5.786;2022-10-31T11:31:08;15.95;;;10.05;;
33802;SDS011;20110;53.120;5.786;2022-10-31T11:33:39;17.67;;;11.40;;
33802;SDS011;20110;53.120;5.786;2022-10-31T11:36:16;15.90;;;11.27;;
33802;SDS011;20110;53.120;5.786;2022-10-31T11:38:48;14.38;;;11.18;;
33802;SDS011;20110;53.120;5.786;2022-10-31T11:41:25;21.30;;;11.23;;
33802;SDS011;20110;53.120;5.786;2022-10-31T11:44:06;18.58;;;12.32;;
33802;SDS011;20110;53.120;5.786;2022-10-31T11:46:54;16.73;;;12.02;;
33802;SDS011;20110;53.120;5.786;2022-10-31T11:49:37;25.17;;;13.70;;
33802;SDS011;20110;53.120;5.786;2022-10-31T11:52:08;22.63;;;13.02;;
33802;SDS011;20110;53.120;5.786;2022-10-31T11:54:48;20.90;;;13.63;;
33802;SDS011;20110;53.120;5.786;2022-10-31T11:57:45;18.13;;;13.60;;
33802;SDS011;20110;53.120;5.786;2022-10-31T12:03:18;25.38;;;15.40;;
33802;SDS011;20110;53.120;5.786;2022-10-31T12:06:33;30.25;;;16.10;;
33802;SDS011;20110;53.120;5.786;2022-10-31T12:09:09;29.95;;;17.30;;
33802;SDS011;20110;53.120;5.786;2022-10-31T12:15:50;28.77;;;17.98;;
33802;SDS011;20110;53.120;5.786;2022-10-31T12:20:54;32.08;;;18.13;;
33802;SDS011;20110;53.120;5.786;2022-10-31T12:23:28;22.75;;;15.73;;
33802;SDS011;20110;53.120;5.786;2022-10-31T12:26:29;36.30;;;16.52;;
33802;SDS011;20110;53.120;5.786;2022-10-31T12:29:26;32.10;;;17.48;;
33802;SDS011;20110;53.120;5.786;2022-10-31T12:32:32;29.33;;;16.25;;
33802;SDS011;20110;53.120;5.786;2022-10-31T12:47:51;21.38;;;12.95;;
33802;SDS011;20110;53.120;5.786;2022-10-31T12:59:48;20.10;;;11.35;;
33802;SDS011;20110;53.120;5.786;2022-10-31T13:05:13;17.42;;;9.40;;
33802;SDS011;20110;53.120;5.786;2022-10-31T13:13:44;13.25;;;7.68;;
33802;SDS011;20110;53.120;5.786;2022-10-31T13:16:24;16.75;;;9.50;;
33802;SDS011;20110;53.120;5.786;2022-10-31T13:19:22;11.23;;;6.63;;
33802;SDS011;20110;53.120;5.786;2022-10-31T13:22:12;15.65;;;7.00;;
33802;SDS011;20110;53.120;5.786;2022-10-31T13:25:04;13.32;;;7.18;;
33802;SDS011;20110;53.120;5.786;2022-10-31T13:30:38;6.90;;;5.65;;
33802;SDS011;20110;53.120;5.786;2022-10-31T13:33:17;9.68;;;5.13;;
33802;SDS011;20110;53.120;5.786;2022-10-31T13:36:03;10.43;;;5.30;;
33802;SDS011;20110;53.120;5.786;2022-10-31T13:42:08;9.10;;;5.72;;
33802;SDS011;20110;53.120;5.786;2022-10-31T13:44:45;9.23;;;5.60;;
33802;SDS011;20110;53.120;5.786;2022-10-31T13:47:27;12.82;;;5.88;;
33802;SDS011;20110;53.120;5.786;2022-10-31T13:50:19;12.63;;;6.35;;
33802;SDS011;20110;53.120;5.786;2022-10-31T13:52:48;12.07;;;6.15;;
33802;SDS011;20110;53.120;5.786;2022-10-31T13:58:28;12.00;;;7.00;;
33802;SDS011;20110;53.120;5.786;2022-10-31T14:03:37;11.68;;;6.55;;
33802;SDS011;20110;53.120;5.786;2022-10-31T14:06:08;17.17;;;6.63;;
33802;SDS011;20110;53.120;5.786;2022-10-31T14:08:37;12.70;;;7.10;;
33802;SDS011;20110;53.120;5.786;2022-10-31T14:11:22;15.68;;;6.85;;
33802;SDS011;20110;53.120;5.786;2022-10-31T14:13:52;15.43;;;7.15;;
33802;SDS011;20110;53.120;5.786;2022-10-31T14:16:26;13.18;;;6.88;;
33802;SDS011;20110;53.120;5.786;2022-10-31T14:19:15;11.07;;;7.28;;
33802;SDS011;20110;53.120;5.786;2022-10-31T14:21:45;14.60;;;7.00;;
33802;SDS011;20110;53.120;5.786;2022-10-31T14:26:52;17.50;;;7.10;;
33802;SDS011;20110;53.120;5.786;2022-10-31T14:29:38;11.35;;;7.07;;
33802;SDS011;20110;53.120;5.786;2022-10-31T14:32:15;13.95;;;7.40;;
33802;SDS011;20110;53.120;5.786;2022-10-31T14:43:53;16.48;;;9.15;;
33802;SDS011;20110;53.120;5.786;2022-10-31T14:46:37;16.00;;;7.82;;
33802;SDS011;20110;53.120;5.786;2022-10-31T14:52:48;14.27;;;8.43;;
33802;SDS011;20110;53.120;5.786;2022-10-31T14:55:19;19.23;;;7.10;;
33802;SDS011;20110;53.120;5.786;2022-10-31T14:57:54;15.18;;;7.85;;
33802;SDS011;20110;53.120;5.786;2022-10-31T15:00:26;17.75;;;7.88;;
33802;SDS011;20110;53.120;5.786;2022-10-31T15:03:15;13.77;;;7.05;;
33802;SDS011;20110;53.120;5.786;2022-10-31T15:05:51;11.70;;;6.63;;
33802;SDS011;20110;53.120;5.786;2022-10-31T15:08:29;15.63;;;6.55;;
33802;SDS011;20110;53.120;5.786;2022-10-31T15:11:12;10.63;;;6.45;;
33802;SDS011;20110;53.120;5.786;2022-10-31T15:13:51;15.02;;;7.28;;
33802;SDS011;20110;53.120;5.786;2022-10-31T15:16:23;19.35;;;7.45;;
33802;SDS011;20110;53.120;5.786;2022-10-31T15:19:05;14.40;;;7.03;;
33802;SDS011;20110;53.120;5.786;2022-10-31T15:21:40;12.27;;;6.70;;
33802;SDS011;20110;53.120;5.786;2022-10-31T15:26:43;13.05;;;6.15;;
33802;SDS011;20110;53.120;5.786;2022-10-31T15:29:14;10.88;;;5.60;;
33802;SDS011;20110;53.120;5.786;2022-10-31T15:31:56;9.75;;;5.50;;
33802;SDS011;20110;53.120;5.786;2022-10-31T15:34:37;11.35;;;4.78;;
33802;SDS011;20110;53.120;5.786;2022-10-31T15:37:10;13.68;;;5.53;;
33802;SDS011;20110;53.120;5.786;2022-10-31T15:39:42;10.05;;;4.45;;
33802;SDS011;20110;53.120;5.786;2022-10-31T15:45:29;12.57;;;3.85;;
33802;SDS011;20110;53.120;5.786;2022-10-31T15:47:57;9.50;;;3.63;;
33802;SDS011;20110;53.120;5.786;2022-10-31T15:53:05;8.68;;;3.67;;
33802;SDS011;20110;53.120;5.786;2022-10-31T15:55:59;7.60;;;3.72;;
33802;SDS011;20110;53.120;5.786;2022-10-31T15:58:29;8.75;;;3.78;;
33802;SDS011;20110;53.120;5.786;2022-10-31T16:01:01;12.85;;;4.05;;
33802;SDS011;20110;53.120;5.786;2022-10-31T16:03:31;9.45;;;4.03;;
33802;SDS011;20110;53.120;5.786;2022-10-31T16:06:03;8.55;;;3.92;;
33802;SDS011;20110;53.120;5.786;2022-10-31T16:13:23;11.25;;;3.78;;
33802;SDS011;20110;53.120;5.786;2022-10-31T16:16:01;16.45;;;4.45;;
33802;SDS011;20110;53.120;5.786;2022-10-31T16:18:40;12.93;;;4.35;;
33802;SDS011;20110;53.120;5.786;2022-10-31T16:21:07;16.67;;;4.93;;
33802;SDS011;20110;53.120;5.786;2022-10-31T16:23:35;14.80;;;5.13;;
33802;SDS011;20110;53.120;5.786;2022-10-31T16:26:08;19.80;;;4.78;;
33802;SDS011;20110;53.120;5.786;2022-10-31T16:28:35;17.25;;;5.07;;
33802;SDS011;20110;53.120;5.786;2022-10-31T16:31:01;12.15;;;4.97;;
33802;SDS011;20110;53.120;5.786;2022-10-31T16:33:39;16.08;;;5.57;;
33802;SDS011;20110;53.120;5.786;2022-10-31T16:38:55;10.60;;;5.20;;
33802;SDS011;20110;53.120;5.786;2022-10-31T16:41:22;13.77;;;6.55;;
33802;SDS011;20110;53.120;5.786;2022-10-31T16:43:50;18.02;;;7.88;;
33802;SDS011;20110;53.120;5.786;2022-10-31T16:46:26;29.33;;;10.38;;
33802;SDS011;20110;53.120;5.786;2022-10-31T16:51:19;20.42;;;9.45;;
33802;SDS011;20110;53.120;5.786;2022-10-31T16:53:45;21.13;;;9.07;;
33802;SDS011;20110;53.120;5.786;2022-10-31T16:56:15;19.25;;;10.95;;
33802;SDS011;20110;53.120;5.786;2022-10-31T16:58:51;20.52;;;9.48;;
33802;SDS011;20110;53.120;5.786;2022-10-31T17:01:17;19.55;;;9.50;;
33802;SDS011;20110;53.120;5.786;2022-10-31T17:03:42;18.17;;;8.60;;
33802;SDS011;20110;53.120;5.786;2022-10-31T17:06:10;22.55;;;8.45;;
33802;SDS011;20110;53.120;5.786;2022-10-31T17:08:38;14.88;;;8.07;;
33802;SDS011;20110;53.120;5.786;2022-10-31T17:11:04;22.13;;;7.70;;
33802;SDS011;20110;53.120;5.786;2022-10-31T17:13:33;15.82;;;7.70;;
33802;SDS011;20110;53.120;5.786;2022-10-31T17:16:00;16.33;;;7.35;;
33802;SDS011;20110;53.120;5.786;2022-10-31T17:18:27;13.02;;;7.35;;
33802;SDS011;20110;53.120;5.786;2022-10-31T17:21:03;17.67;;;8.38;;
33802;SDS011;20110;53.120;5.786;2022-10-31T17:23:32;22.80;;;8.65;;
33802;SDS011;20110;53.120;5.786;2022-10-31T17:25:58;19.85;;;9.07;;
33802;SDS011;20110;53.120;5.786;2022-10-31T17:28:24;23.70;;;9.48;;